sensor_id;sensor_type;location;lat;lon;timestamp;P1;durP1;ratioP1;P2;durP2;ratioP2
54665;SDS011;40566;50.006;36.180;2022-08-01T00:00:38;3.75;;;1.33;;
54665;SDS011;40566;50.006;36.180;2022-08-01T00:05:39;4.57;;;1.20;;
54665;SDS011;40566;50.006;36.180;2022-08-01T00:10:40;3.40;;;1.02;;
54665;SDS011;40566;50.006;36.180;2022-08-01T00:15:41;2.33;;;1.00;;
54665;SDS011;40566;50.006;36.180;2022-08-01T00:20:41;4.22;;;1.00;;
54665;SDS011;40566;50.006;36.180;2022-08-01T00:25:42;3.20;;;1.10;;
54665;SDS011;40566;50.006;36.180;2022-08-01T00:30:43;2.60;;;1.30;;
54665;SDS011;40566;50.006;36.180;2022-08-01T00:35:43;2.20;;;1.00;;
54665;SDS011;40566;50.006;36.180;2022-08-01T00:40:44;2.15;;;1.00;;
54665;SDS011;40566;50.006;36.180;2022-08-01T00:45:45;4.05;;;0.95;;
54665;SDS011;40566;50.006;36.180;2022-08-01T00:50:45;2.08;;;1.00;;
54665;SDS011;40566;50.006;36.180;2022-08-01T00:55:46;8.77;;;1.48;;
54665;SDS011;40566;50.006;36.180;2022-08-01T01:00:48;2.08;;;0.95;;
54665;SDS011;40566;50.006;36.180;2022-08-01T01:05:56;4.03;;;1.10;;
54665;SDS011;40566;50.006;36.180;2022-08-01T01:11:03;2.63;;;1.08;;
54665;SDS011;40566;50.006;36.180;2022-08-01T01:16:28;2.00;;;1.00;;
54665;SDS011;40566;50.006;36.180;2022-08-01T01:21:35;3.15;;;1.30;;
54665;SDS011;40566;50.006;36.180;2022-08-01T01:37:23;5.97;;;1.00;;
54665;SDS011;40566;50.006;36.180;2022-08-01T01:42:27;2.78;;;1.00;;
54665;SDS011;40566;50.006;36.180;2022-08-01T01:47:28;2.42;;;1.15;;
54665;SDS011;40566;50.006;36.180;2022-08-01T01:52:31;3.63;;;1.10;;
54665;SDS011;40566;50.006;36.180;2022-08-01T01:57:32;5.70;;;1.23;;
54665;SDS011;40566;50.006;36.180;2022-08-01T02:02:37;2.90;;;1.05;;
54665;SDS011;40566;50.006;36.180;2022-08-01T02:07:39;4.20;;;1.10;;
54665;SDS011;40566;50.006;36.180;2022-08-01T02:12:41;3.60;;;1.25;;
54665;SDS011;40566;50.006;36.180;2022-08-01T02:17:47;3.28;;;1.20;;
54665;SDS011;40566;50.006;36.180;2022-08-01T02:22:50;4.00;;;1.50;;
54665;SDS011;40566;50.006;36.180;2022-08-01T02:28:01;3.37;;;1.10;;
54665;SDS011;40566;50.006;36.180;2022-08-01T02:33:12;6.40;;;1.48;;
54665;SDS011;40566;50.006;36.180;2022-08-01T02:38:17;3.17;;;1.30;;
54665;SDS011;40566;50.006;36.180;2022-08-01T02:43:21;3.13;;;1.30;;
54665;SDS011;40566;50.006;36.180;2022-08-01T02:48:24;5.10;;;1.20;;
54665;SDS011;40566;50.006;36.180;2022-08-01T02:53:26;5.45;;;1.35;;
54665;SDS011;40566;50.006;36.180;2022-08-01T02:58:32;3.00;;;1.20;;
54665;SDS011;40566;50.006;36.180;2022-08-01T03:03:36;3.70;;;1.27;;
54665;SDS011;40566;50.006;36.180;2022-08-01T03:08:37;3.22;;;1.15;;
54665;SDS011;40566;50.006;36.180;2022-08-01T03:13:39;4.28;;;1.08;;
54665;SDS011;40566;50.006;36.180;2022-08-01T03:18:42;4.72;;;1.35;;
54665;SDS011;40566;50.006;36.180;2022-08-01T03:23:45;7.22;;;1.40;;
54665;SDS011;40566;50.006;36.180;2022-08-01T03:28:47;2.95;;;1.25;;
54665;SDS011;40566;50.006;36.180;2022-08-01T04:44:36;5.70;;;1.60;;
54665;SDS011;40566;50.006;36.180;2022-08-01T04:49:37;4.45;;;1.75;;
54665;SDS011;40566;50.006;36.180;2022-08-01T04:54:39;4.88;;;1.83;;
54665;SDS011;40566;50.006;36.180;2022-08-01T04:59:42;3.95;;;1.48;;
54665;SDS011;40566;50.006;36.180;2022-08-01T05:04:44;4.50;;;1.45;;
54665;SDS011;40566;50.006;36.180;2022-08-01T05:09:46;5.30;;;1.70;;
54665;SDS011;40566;50.006;36.180;2022-08-01T05:14:46;5.05;;;1.60;;
54665;SDS011;40566;50.006;36.180;2022-08-01T05:19:47;5.43;;;2.42;;
54665;SDS011;40566;50.006;36.180;2022-08-01T05:24:47;3.42;;;1.48;;
54665;SDS011;40566;50.006;36.180;2022-08-01T05:29:48;5.05;;;1.60;;
54665;SDS011;40566;50.006;36.180;2022-08-01T05:34:49;4.53;;;1.80;;
54665;SDS011;40566;50.006;36.180;2022-08-01T05:39:49;6.70;;;1.98;;
54665;SDS011;40566;50.006;36.180;2022-08-01T05:44:50;3.80;;;1.75;;
54665;SDS011;40566;50.006;36.180;2022-08-01T05:49:51;3.80;;;1.55;;
54665;SDS011;40566;50.006;36.180;2022-08-01T05:54:51;5.30;;;1.48;;
54665;SDS011;40566;50.006;36.180;2022-08-01T05:59:52;5.88;;;1.70;;
54665;SDS011;40566;50.006;36.180;2022-08-01T06:04:53;6.57;;;1.38;;
54665;SDS011;40566;50.006;36.180;2022-08-01T06:09:53;10.70;;;2.05;;
54665;SDS011;40566;50.006;36.180;2022-08-01T06:14:54;3.72;;;1.70;;
54665;SDS011;40566;50.006;36.180;2022-08-01T06:19:54;3.42;;;1.67;;
54665;SDS011;40566;50.006;36.180;2022-08-01T06:24:55;7.25;;;1.80;;
54665;SDS011;40566;50.006;36.180;2022-08-01T06:29:56;4.85;;;1.70;;
54665;SDS011;40566;50.006;36.180;2022-08-01T06:34:57;6.38;;;2.05;;
54665;SDS011;40566;50.006;36.180;2022-08-01T06:40:01;4.93;;;2.05;;
54665;SDS011;40566;50.006;36.180;2022-08-01T06:45:05;5.00;;;1.80;;
54665;SDS011;40566;50.006;36.180;2022-08-01T06:50:10;8.43;;;1.85;;
54665;SDS011;40566;50.006;36.180;2022-08-01T06:55:11;5.68;;;2.20;;
54665;SDS011;40566;50.006;36.180;2022-08-01T07:00:12;5.75;;;1.45;;
54665;SDS011;40566;50.006;36.180;2022-08-01T07:05:13;3.22;;;1.65;;
54665;SDS011;40566;50.006;36.180;2022-08-01T07:10:14;4.03;;;2.08;;
54665;SDS011;40566;50.006;36.180;2022-08-01T07:15:15;4.70;;;1.65;;
54665;SDS011;40566;50.006;36.180;2022-08-01T07:20:15;4.72;;;1.98;;
54665;SDS011;40566;50.006;36.180;2022-08-01T07:25:16;4.78;;;1.77;;
54665;SDS011;40566;50.006;36.180;2022-08-01T07:30:17;5.93;;;1.58;;
54665;SDS011;40566;50.006;36.180;2022-08-01T07:35:17;4.13;;;2.00;;
54665;SDS011;40566;50.006;36.180;2022-08-01T07:40:18;6.60;;;1.67;;
54665;SDS011;40566;50.006;36.180;2022-08-01T07:45:19;2.65;;;1.52;;
54665;SDS011;40566;50.006;36.180;2022-08-01T07:50:20;2.58;;;1.48;;
54665;SDS011;40566;50.006;36.180;2022-08-01T07:55:21;8.20;;;1.70;;
54665;SDS011;40566;50.006;36.180;2022-08-01T08:00:22;4.40;;;1.30;;
54665;SDS011;40566;50.006;36.180;2022-08-01T08:05:23;3.17;;;1.42;;
54665;SDS011;40566;50.006;36.180;2022-08-01T08:10:23;3.97;;;1.60;;
54665;SDS011;40566;50.006;36.180;2022-08-01T08:15:24;4.78;;;1.42;;
54665;SDS011;40566;50.006;36.180;2022-08-01T08:20:25;2.47;;;1.40;;
54665;SDS011;40566;50.006;36.180;2022-08-01T08:25:27;7.32;;;1.50;;
54665;SDS011;40566;50.006;36.180;2022-08-01T08:30:28;3.58;;;1.00;;
54665;SDS011;40566;50.006;36.180;2022-08-01T08:35:29;2.33;;;1.10;;
54665;SDS011;40566;50.006;36.180;2022-08-01T08:40:30;4.72;;;1.20;;
54665;SDS011;40566;50.006;36.180;2022-08-01T08:45:32;12.38;;;1.55;;
54665;SDS011;40566;50.006;36.180;2022-08-01T08:50:33;2.75;;;1.17;;
54665;SDS011;40566;50.006;36.180;2022-08-01T08:55:34;1.70;;;0.98;;
54665;SDS011;40566;50.006;36.180;2022-08-01T09:00:38;3.08;;;1.25;;
54665;SDS011;40566;50.006;36.180;2022-08-01T09:05:40;2.92;;;1.40;;
54665;SDS011;40566;50.006;36.180;2022-08-01T09:10:41;3.67;;;1.35;;
54665;SDS011;40566;50.006;36.180;2022-08-01T09:20:50;4.20;;;1.48;;
54665;SDS011;40566;50.006;36.180;2022-08-01T09:25:51;2.58;;;1.27;;
54665;SDS011;40566;50.006;36.180;2022-08-01T09:30:57;3.70;;;1.38;;
54665;SDS011;40566;50.006;36.180;2022-08-01T09:35:57;1.95;;;1.30;;
54665;SDS011;40566;50.006;36.180;2022-08-01T09:40:59;4.07;;;1.25;;
54665;SDS011;40566;50.006;36.180;2022-08-01T09:46:04;4.68;;;1.00;;
54665;SDS011;40566;50.006;36.180;2022-08-01T09:51:11;2.47;;;1.20;;
54665;SDS011;40566;50.006;36.180;2022-08-01T09:56:13;3.60;;;1.10;;
54665;SDS011;40566;50.006;36.180;2022-08-01T10:01:15;3.30;;;1.10;;
54665;SDS011;40566;50.006;36.180;2022-08-01T10:06:19;2.47;;;1.17;;
54665;SDS011;40566;50.006;36.180;2022-08-01T10:11:21;3.70;;;1.65;;
54665;SDS011;40566;50.006;36.180;2022-08-01T10:16:24;3.25;;;1.38;;
54665;SDS011;40566;50.006;36.180;2022-08-01T10:21:26;9.93;;;3.25;;
54665;SDS011;40566;50.006;36.180;2022-08-01T10:26:27;8.20;;;1.60;;
54665;SDS011;40566;50.006;36.180;2022-08-01T10:31:32;4.60;;;1.58;;
54665;SDS011;40566;50.006;36.180;2022-08-01T10:36:33;3.45;;;1.23;;
54665;SDS011;40566;50.006;36.180;2022-08-01T10:41:36;2.95;;;1.33;;
54665;SDS011;40566;50.006;36.180;2022-08-01T10:46:39;2.80;;;1.10;;
54665;SDS011;40566;50.006;36.180;2022-08-01T10:51:42;2.05;;;1.40;;
54665;SDS011;40566;50.006;36.180;2022-08-01T10:56:46;5.25;;;1.40;;
54665;SDS011;40566;50.006;36.180;2022-08-01T11:01:57;3.40;;;1.30;;
54665;SDS011;40566;50.006;36.180;2022-08-01T11:07:11;4.15;;;1.42;;
54665;SDS011;40566;50.006;36.180;2022-08-01T11:12:17;2.45;;;1.20;;
54665;SDS011;40566;50.006;36.180;2022-08-01T11:33:17;3.53;;;1.30;;
54665;SDS011;40566;50.006;36.180;2022-08-01T11:38:23;3.13;;;1.30;;
54665;SDS011;40566;50.006;36.180;2022-08-01T11:43:30;3.80;;;1.27;;
54665;SDS011;40566;50.006;36.180;2022-08-01T11:48:30;3.97;;;1.58;;
54665;SDS011;40566;50.006;36.180;2022-08-01T11:53:31;7.30;;;1.48;;
54665;SDS011;40566;50.006;36.180;2022-08-01T11:58:33;2.90;;;1.40;;
54665;SDS011;40566;50.006;36.180;2022-08-01T12:03:34;5.53;;;1.80;;
54665;SDS011;40566;50.006;36.180;2022-08-01T12:08:35;4.40;;;1.95;;
54665;SDS011;40566;50.006;36.180;2022-08-01T12:13:42;3.25;;;1.75;;
54665;SDS011;40566;50.006;36.180;2022-08-01T12:18:44;3.35;;;1.75;;
54665;SDS011;40566;50.006;36.180;2022-08-01T12:23:45;3.90;;;2.05;;
54665;SDS011;40566;50.006;36.180;2022-08-01T12:28:46;3.97;;;1.52;;
54665;SDS011;40566;50.006;36.180;2022-08-01T12:33:47;3.20;;;1.73;;
54665;SDS011;40566;50.006;36.180;2022-08-01T12:38:52;4.18;;;1.73;;
54665;SDS011;40566;50.006;36.180;2022-08-01T12:43:53;4.07;;;1.70;;
54665;SDS011;40566;50.006;36.180;2022-08-01T12:48:53;4.57;;;1.88;;
54665;SDS011;40566;50.006;36.180;2022-08-01T12:53:57;8.73;;;2.40;;
54665;SDS011;40566;50.006;36.180;2022-08-01T12:58:59;4.82;;;2.33;;
54665;SDS011;40566;50.006;36.180;2022-08-01T13:04:00;5.18;;;2.20;;
54665;SDS011;40566;50.006;36.180;2022-08-01T13:09:06;5.28;;;2.47;;
54665;SDS011;40566;50.006;36.180;2022-08-01T13:14:09;11.48;;;2.80;;
54665;SDS011;40566;50.006;36.180;2022-08-01T13:19:10;6.43;;;2.70;;
54665;SDS011;40566;50.006;36.180;2022-08-01T13:24:11;5.72;;;2.38;;
54665;SDS011;40566;50.006;36.180;2022-08-01T13:29:14;5.45;;;2.50;;
54665;SDS011;40566;50.006;36.180;2022-08-01T13:34:16;6.53;;;3.10;;
54665;SDS011;40566;50.006;36.180;2022-08-01T13:39:17;7.28;;;2.92;;
54665;SDS011;40566;50.006;36.180;2022-08-01T13:44:36;5.55;;;2.50;;
54665;SDS011;40566;50.006;36.180;2022-08-01T13:49:36;4.78;;;2.42;;
54665;SDS011;40566;50.006;36.180;2022-08-01T13:54:37;10.30;;;2.95;;
54665;SDS011;40566;50.006;36.180;2022-08-01T13:59:38;5.75;;;2.90;;
54665;SDS011;40566;50.006;36.180;2022-08-01T14:04:38;5.28;;;2.55;;
54665;SDS011;40566;50.006;36.180;2022-08-01T14:09:39;5.32;;;2.45;;
54665;SDS011;40566;50.006;36.180;2022-08-01T14:14:39;6.13;;;3.08;;
54665;SDS011;40566;50.006;36.180;2022-08-01T14:19:40;7.60;;;3.53;;
54665;SDS011;40566;50.006;36.180;2022-08-01T14:24:41;7.28;;;3.25;;
54665;SDS011;40566;50.006;36.180;2022-08-01T14:29:41;7.85;;;3.42;;
54665;SDS011;40566;50.006;36.180;2022-08-01T14:34:42;9.10;;;3.30;;
54665;SDS011;40566;50.006;36.180;2022-08-01T14:39:42;8.45;;;3.13;;
54665;SDS011;40566;50.006;36.180;2022-08-01T14:44:43;7.60;;;3.60;;
54665;SDS011;40566;50.006;36.180;2022-08-01T14:49:44;6.95;;;3.13;;
54665;SDS011;40566;50.006;36.180;2022-08-01T14:54:44;8.95;;;3.03;;
54665;SDS011;40566;50.006;36.180;2022-08-01T14:59:45;7.35;;;3.33;;
54665;SDS011;40566;50.006;36.180;2022-08-01T15:04:46;9.00;;;3.75;;
54665;SDS011;40566;50.006;36.180;2022-08-01T15:09:48;6.72;;;3.00;;
54665;SDS011;40566;50.006;36.180;2022-08-01T15:14:48;8.98;;;3.10;;
54665;SDS011;40566;50.006;36.180;2022-08-01T15:19:50;11.65;;;3.97;;
54665;SDS011;40566;50.006;36.180;2022-08-01T15:24:53;9.57;;;3.90;;
54665;SDS011;40566;50.006;36.180;2022-08-01T15:29:55;8.95;;;4.68;;
54665;SDS011;40566;50.006;36.180;2022-08-01T15:34:56;7.72;;;3.40;;
54665;SDS011;40566;50.006;36.180;2022-08-01T15:39:57;6.93;;;3.25;;
54665;SDS011;40566;50.006;36.180;2022-08-01T15:44:57;8.00;;;3.63;;
54665;SDS011;40566;50.006;36.180;2022-08-01T15:49:58;7.68;;;3.67;;
54665;SDS011;40566;50.006;36.180;2022-08-01T15:55:02;8.98;;;3.67;;
54665;SDS011;40566;50.006;36.180;2022-08-01T16:00:03;8.80;;;3.55;;
54665;SDS011;40566;50.006;36.180;2022-08-01T16:05:06;6.93;;;3.30;;
54665;SDS011;40566;50.006;36.180;2022-08-01T16:10:07;8.82;;;3.53;;
54665;SDS011;40566;50.006;36.180;2022-08-01T16:15:09;9.18;;;3.35;;
54665;SDS011;40566;50.006;36.180;2022-08-01T16:20:10;8.75;;;3.92;;
54665;SDS011;40566;50.006;36.180;2022-08-01T16:25:11;9.63;;;3.80;;
54665;SDS011;40566;50.006;36.180;2022-08-01T16:30:13;9.55;;;3.95;;
54665;SDS011;40566;50.006;36.180;2022-08-01T16:35:14;13.40;;;4.20;;
54665;SDS011;40566;50.006;36.180;2022-08-01T16:40:15;36.95;;;5.88;;
54665;SDS011;40566;50.006;36.180;2022-08-01T16:45:15;16.88;;;4.47;;
54665;SDS011;40566;50.006;36.180;2022-08-01T16:50:20;9.10;;;4.13;;
54665;SDS011;40566;50.006;36.180;2022-08-01T16:55:20;9.13;;;4.15;;
54665;SDS011;40566;50.006;36.180;2022-08-01T17:00:23;10.75;;;4.00;;
54665;SDS011;40566;50.006;36.180;2022-08-01T17:05:25;10.52;;;3.95;;
54665;SDS011;40566;50.006;36.180;2022-08-01T17:10:27;11.00;;;4.40;;
54665;SDS011;40566;50.006;36.180;2022-08-01T17:15:28;7.88;;;3.97;;
54665;SDS011;40566;50.006;36.180;2022-08-01T17:20:29;9.40;;;4.20;;
54665;SDS011;40566;50.006;36.180;2022-08-01T17:25:29;8.25;;;3.95;;
54665;SDS011;40566;50.006;36.180;2022-08-01T17:30:30;11.88;;;4.40;;
54665;SDS011;40566;50.006;36.180;2022-08-01T17:35:31;9.50;;;4.40;;
54665;SDS011;40566;50.006;36.180;2022-08-01T17:40:32;18.00;;;4.72;;
54665;SDS011;40566;50.006;36.180;2022-08-01T17:45:33;8.95;;;4.15;;
54665;SDS011;40566;50.006;36.180;2022-08-01T17:50:34;7.82;;;3.85;;
54665;SDS011;40566;50.006;36.180;2022-08-01T17:55:34;9.75;;;4.30;;
54665;SDS011;40566;50.006;36.180;2022-08-01T18:00:35;10.13;;;3.92;;
54665;SDS011;40566;50.006;36.180;2022-08-01T18:05:37;9.20;;;4.03;;
54665;SDS011;40566;50.006;36.180;2022-08-01T18:10:38;7.97;;;3.80;;
54665;SDS011;40566;50.006;36.180;2022-08-01T18:15:39;8.63;;;3.65;;
54665;SDS011;40566;50.006;36.180;2022-08-01T18:20:40;9.45;;;3.60;;
54665;SDS011;40566;50.006;36.180;2022-08-01T18:25:40;10.43;;;3.90;;
54665;SDS011;40566;50.006;36.180;2022-08-01T18:30:41;11.68;;;4.75;;
54665;SDS011;40566;50.006;36.180;2022-08-01T18:35:42;11.02;;;5.38;;
54665;SDS011;40566;50.006;36.180;2022-08-01T18:40:43;17.98;;;6.53;;
54665;SDS011;40566;50.006;36.180;2022-08-01T18:45:44;13.32;;;6.97;;
54665;SDS011;40566;50.006;36.180;2022-08-01T18:50:45;16.13;;;7.60;;
54665;SDS011;40566;50.006;36.180;2022-08-01T18:55:46;16.83;;;7.80;;
54665;SDS011;40566;50.006;36.180;2022-08-01T19:00:46;16.20;;;7.57;;
54665;SDS011;40566;50.006;36.180;2022-08-01T19:05:47;21.38;;;10.13;;
54665;SDS011;40566;50.006;36.180;2022-08-01T19:10:51;24.40;;;10.68;;
54665;SDS011;40566;50.006;36.180;2022-08-01T19:15:51;20.63;;;9.55;;
54665;SDS011;40566;50.006;36.180;2022-08-01T19:20:52;16.67;;;7.43;;
54665;SDS011;40566;50.006;36.180;2022-08-01T19:25:54;15.50;;;6.68;;
54665;SDS011;40566;50.006;36.180;2022-08-01T19:30:56;15.23;;;6.05;;
54665;SDS011;40566;50.006;36.180;2022-08-01T19:35:59;12.88;;;5.32;;
54665;SDS011;40566;50.006;36.180;2022-08-01T19:40:59;9.85;;;4.30;;
54665;SDS011;40566;50.006;36.180;2022-08-01T19:46:02;10.65;;;4.10;;
54665;SDS011;40566;50.006;36.180;2022-08-01T19:51:06;11.43;;;4.10;;
54665;SDS011;40566;50.006;36.180;2022-08-01T19:56:13;8.82;;;4.30;;
54665;SDS011;40566;50.006;36.180;2022-08-01T20:01:16;8.90;;;3.65;;
54665;SDS011;40566;50.006;36.180;2022-08-01T20:06:17;9.48;;;3.85;;
54665;SDS011;40566;50.006;36.180;2022-08-01T20:11:18;9.85;;;4.28;;
54665;SDS011;40566;50.006;36.180;2022-08-01T20:16:20;9.95;;;4.28;;
54665;SDS011;40566;50.006;36.180;2022-08-01T20:21:21;11.00;;;4.70;;
54665;SDS011;40566;50.006;36.180;2022-08-01T20:26:24;9.68;;;4.15;;
54665;SDS011;40566;50.006;36.180;2022-08-01T20:31:27;9.02;;;4.15;;
54665;SDS011;40566;50.006;36.180;2022-08-01T20:36:29;8.55;;;4.28;;
54665;SDS011;40566;50.006;36.180;2022-08-01T20:41:30;13.13;;;4.70;;
54665;SDS011;40566;50.006;36.180;2022-08-01T20:46:31;11.40;;;4.78;;
54665;SDS011;40566;50.006;36.180;2022-08-01T20:51:31;12.73;;;4.82;;
54665;SDS011;40566;50.006;36.180;2022-08-01T20:56:35;9.65;;;4.72;;
54665;SDS011;40566;50.006;36.180;2022-08-01T21:01:42;9.05;;;4.43;;
54665;SDS011;40566;50.006;36.180;2022-08-01T21:06:59;8.70;;;4.15;;
54665;SDS011;40566;50.006;36.180;2022-08-01T21:12:24;8.75;;;4.10;;
54665;SDS011;40566;50.006;36.180;2022-08-01T21:22:36;9.95;;;4.10;;
54665;SDS011;40566;50.006;36.180;2022-08-01T21:27:40;7.63;;;3.83;;
54665;SDS011;40566;50.006;36.180;2022-08-01T21:32:46;8.23;;;3.50;;
54665;SDS011;40566;50.006;36.180;2022-08-01T21:37:48;8.52;;;3.50;;
54665;SDS011;40566;50.006;36.180;2022-08-01T21:42:49;9.23;;;3.67;;
54665;SDS011;40566;50.006;36.180;2022-08-01T21:47:52;9.90;;;3.45;;
54665;SDS011;40566;50.006;36.180;2022-08-01T22:04:02;7.88;;;3.60;;
54665;SDS011;40566;50.006;36.180;2022-08-01T22:09:12;7.53;;;3.65;;
54665;SDS011;40566;50.006;36.180;2022-08-01T22:14:14;7.70;;;4.20;;
54665;SDS011;40566;50.006;36.180;2022-08-01T22:19:16;8.00;;;3.75;;
54665;SDS011;40566;50.006;36.180;2022-08-01T22:24:17;10.02;;;4.20;;
54665;SDS011;40566;50.006;36.180;2022-08-01T22:29:18;8.75;;;4.20;;
54665;SDS011;40566;50.006;36.180;2022-08-01T22:34:19;8.95;;;3.50;;
54665;SDS011;40566;50.006;36.180;2022-08-01T22:39:20;9.05;;;3.90;;
54665;SDS011;40566;50.006;36.180;2022-08-01T22:44:24;9.52;;;4.05;;
54665;SDS011;40566;50.006;36.180;2022-08-01T22:55:06;9.10;;;4.57;;
54665;SDS011;40566;50.006;36.180;2022-08-01T23:00:08;9.93;;;4.70;;
54665;SDS011;40566;50.006;36.180;2022-08-01T23:05:11;10.93;;;4.53;;
54665;SDS011;40566;50.006;36.180;2022-08-01T23:10:20;10.98;;;5.18;;
54665;SDS011;40566;50.006;36.180;2022-08-01T23:15:22;11.27;;;5.60;;
54665;SDS011;40566;50.006;36.180;2022-08-01T23:20:23;13.25;;;6.43;;
54665;SDS011;40566;50.006;36.180;2022-08-01T23:25:25;12.90;;;5.47;;
54665;SDS011;40566;50.006;36.180;2022-08-01T23:30:29;13.32;;;5.88;;
54665;SDS011;40566;50.006;36.180;2022-08-01T23:35:31;13.88;;;6.88;;
54665;SDS011;40566;50.006;36.180;2022-08-01T23:40:32;11.48;;;5.53;;
54665;SDS011;40566;50.006;36.180;2022-08-01T23:45:33;13.43;;;6.72;;
54665;SDS011;40566;50.006;36.180;2022-08-01T23:50:34;12.95;;;6.25;;
54665;SDS011;40566;50.006;36.180;2022-08-01T23:55:35;13.80;;;6.07;;
